»·PEaware :: DAL388 KSFO-KSAN

DAL388 :: KSFO-KSAN

FLIGHT INFORMATION

Flight Status: Arrived
Operator:
Delta Air Lines
More flights by this operator :: More flights under this callsign
Pilot: Jonathon J. (29147)
Aircraft: MCDONNELL-DOUGLAS MD-82
(MD82)
More flights by this aircraft type
Origin: KSFO San Francisco Intl
United States
Destination: KSAN San Diego Intl-Lindbergh
United States
More flights between these airports :: More routes between these airports
Route: + MCKEY LAX COMIX2
File this flight plan on PilotEdge
Remarks:
Altitude:
(Current/Filed)
33,000ft
Speed:
(Current/Filed)
441kts
Departed: 28-Apr-20 06:48 PM
Arrived: 28-Apr-20 07:58 PM
Distance/Time
Traveled:
2118nm/1:10
Distance/Time
To Go:
Arrived

Flight Plot

Page will automatically refresh every two minutes.

Flight plan parsing failed; only flown route is shown


Map Options




Map Legend


Flown Route
Filed Route
Departure Airport
Arrival Airport
Navaid (VOR, NDB)
Fix

Horizontal Profiles

Position Reports

Time Latitude Longitude Heading Altitude Ground
Speed
28-Apr-20 18:37 37.612785 -122.383043 299 22ft 0kts
28-Apr-20 18:38 37.612482 -122.382377 299 22ft 0kts
28-Apr-20 18:39 37.612483 -122.382379 299 22ft 0kts
28-Apr-20 18:40 37.612484 -122.382382 299 22ft 0kts
28-Apr-20 18:41 37.612478 -122.382526 251 22ft 1kts
28-Apr-20 18:42 37.611147 -122.383181 213 22ft 8kts
28-Apr-20 18:43 37.609940 -122.384104 200 22ft 0kts
28-Apr-20 18:44 37.608714 -122.384313 126 22ft 5kts
28-Apr-20 18:45 37.608557 -122.383989 118 22ft 0kts
28-Apr-20 18:46 37.608466 -122.383778 118 22ft 8kts
28-Apr-20 18:47 37.622340 -122.373328 24 25ft 162kts
28-Apr-20 18:48 37.664402 -122.361497 353 2237ft 164kts
28-Apr-20 18:49 37.714159 -122.379171 301 3219ft 234kts
28-Apr-20 18:50 37.701600 -122.458922 234 5201ft 272kts
28-Apr-20 18:51 37.654088 -122.533588 231 7625ft 282kts
28-Apr-20 18:52 37.605233 -122.612491 232 9965ft 284kts
28-Apr-20 18:53 37.551993 -122.701553 232 11015ft 337kts
28-Apr-20 18:54 37.463711 -122.721813 152 13228ft 368kts
28-Apr-20 18:56 37.395809 -122.627154 147 15314ft 379kts
28-Apr-20 18:57 37.304640 -122.564005 152 17399ft 387kts
28-Apr-20 18:58 37.214817 -122.492385 148 19272ft 402kts
28-Apr-20 18:59 37.124257 -122.415346 148 20977ft 416kts
28-Apr-20 19:00 37.030848 -122.338010 149 22597ft 425kts
28-Apr-20 19:01 36.935570 -122.258496 148 24113ft 432kts
28-Apr-20 19:02 36.837893 -122.177540 149 25533ft 440kts
28-Apr-20 19:03 36.738056 -122.095669 149 26834ft 448kts
28-Apr-20 19:04 36.636590 -122.012145 148 28040ft 453kts
28-Apr-20 19:05 36.533568 -121.927440 149 29342ft 453kts
28-Apr-20 19:06 36.431091 -121.843105 149 30642ft 450kts
28-Apr-20 19:07 36.327845 -121.759758 149 31752ft 449kts
28-Apr-20 19:08 36.224963 -121.675731 149 32748ft 448kts
28-Apr-20 19:09 36.120337 -121.591451 149 33094ft 438kts
28-Apr-20 19:10 36.016724 -121.508745 149 33074ft 434kts
28-Apr-20 19:11 35.913169 -121.424842 149 33060ft 437kts
28-Apr-20 19:12 35.809092 -121.341708 149 33045ft 435kts
28-Apr-20 19:12 35.722561 -121.273206 149 33040ft 435kts
28-Apr-20 19:14 35.602023 -121.173218 148 33040ft 434kts
28-Apr-20 19:15 35.496024 -121.089283 146 33035ft 438kts
28-Apr-20 19:15 35.426866 -120.992763 122 33038ft 442kts
28-Apr-20 19:16 35.359531 -120.860523 126 33034ft 441kts
28-Apr-20 19:18 35.273266 -120.712979 125 33030ft 437kts
28-Apr-20 19:18 35.213427 -120.606438 125 33029ft 437kts
28-Apr-20 19:19 35.140523 -120.478962 125 33032ft 436kts
28-Apr-20 19:20 35.067925 -120.352185 125 33036ft 440kts
28-Apr-20 19:21 34.994939 -120.225112 125 33037ft 438kts
28-Apr-20 19:22 34.921659 -120.098300 126 33038ft 443kts
28-Apr-20 19:23 34.848397 -119.971921 125 33033ft 441kts
28-Apr-20 19:24 34.775070 -119.845711 125 33031ft 441kts
28-Apr-20 19:25 34.701756 -119.720284 126 33020ft 443kts
28-Apr-20 19:26 34.627938 -119.594299 126 33038ft 442kts
28-Apr-20 19:27 34.554544 -119.469348 126 33044ft 450kts
28-Apr-20 19:28 34.481041 -119.344994 126 33054ft 449kts
28-Apr-20 19:29 34.407202 -119.220191 126 33052ft 445kts
28-Apr-20 19:30 34.333798 -119.096079 126 33037ft 447kts
28-Apr-20 19:31 34.260260 -118.973132 126 33033ft 440kts
28-Apr-20 19:32 34.186680 -118.850453 126 33032ft 441kts
28-Apr-20 19:33 34.113166 -118.728484 126 33032ft 446kts
28-Apr-20 19:34 34.039781 -118.606876 126 33037ft 448kts
28-Apr-20 19:35 33.965975 -118.486368 126 33049ft 446kts
28-Apr-20 19:36 33.886705 -118.370971 134 33050ft 445kts
28-Apr-20 19:37 33.801243 -118.263324 133 33049ft 445kts
28-Apr-20 19:38 33.717558 -118.153345 132 33042ft 447kts
28-Apr-20 19:39 33.633001 -118.040839 133 30441ft 460kts
28-Apr-20 19:40 33.548391 -117.930656 134 27597ft 443kts
28-Apr-20 19:41 33.462414 -117.830652 137 24945ft 424kts
28-Apr-20 19:42 33.376791 -117.737641 138 22337ft 406kts
28-Apr-20 19:43 33.293811 -117.649239 138 19837ft 389kts
28-Apr-20 19:44 33.214034 -117.564452 138 17375ft 376kts
28-Apr-20 19:45 33.136510 -117.483246 140 14963ft 360kts
28-Apr-20 19:46 33.057815 -117.416830 145 13314ft 347kts
28-Apr-20 19:47 32.980486 -117.353425 143 11495ft 338kts
28-Apr-20 19:48 32.908960 -117.293333 143 10428ft 288kts
28-Apr-20 19:49 32.849726 -117.243877 144 9002ft 265kts
28-Apr-20 19:50 32.805747 -117.186352 109 7751ft 224kts
28-Apr-20 19:51 32.789881 -117.115455 105 5950ft 210kts
28-Apr-20 19:52 32.765683 -117.052568 146 4156ft 215kts
28-Apr-20 19:53 32.713027 -117.037386 222 2763ft 199kts
28-Apr-20 19:54 32.708663 -117.091359 286 1605ft 151kts
28-Apr-20 19:55 32.720172 -117.134316 286 886ft 140kts
28-Apr-20 19:56 32.730721 -117.178072 285 100ft 135kts
28-Apr-20 19:57 32.735073 -117.198432 248 24ft 18kts
28-Apr-20 19:58 32.734996 -117.199937 283 24ft 18kts
28-Apr-20 19:59 32.735375 -117.204767 223 24ft 11kts
28-Apr-20 20:00 32.734615 -117.204619 138 24ft 0kts
28-Apr-20 20:01 32.734615 -117.204619 138 24ft 0kts
28-Apr-20 20:02 32.734615 -117.204619 138 24ft 0kts
28-Apr-20 20:03 32.734615 -117.204619 138 24ft 0kts
28-Apr-20 20:04 32.734615 -117.204619 138 24ft 0kts
28-Apr-20 20:05 32.734615 -117.204619 138 24ft 0kts
28-Apr-20 20:06 32.734615 -117.204619 138 24ft 0kts
28-Apr-20 20:07 32.734615 -117.204619 138 24ft 0kts
28-Apr-20 20:08 32.734615 -117.204619 138 24ft 0kts
28-Apr-20 20:09 32.734615 -117.204619 138 24ft 0kts
28-Apr-20 20:10 27.509778 -81.881804 359 117ft 0kts
28-Apr-20 20:11 27.509778 -81.881804 359 117ft 0kts

Navigation Log

Ident Type
Flight plan parsing failed, navigation log unavailable